Time;durP1;ratioP1;P1;durP2;ratioP2;P2;SDS_P1;SDS_P2;PMS_P1;PMS_P2;Temp;Humidity;BMP_temperature;BMP_pressure;BME280_temperature;BME280_humidity;BME280_pressure;Samples;Min_cycle;Max_cycle;Signal;HPM_P1;HPM_P2
2023/09/14 00:01:54;;;;;;;5.32;4.75;;;;;18.40;99059.00;;;;4916019;29;20079;-66
2023/09/14 00:04:21;;;;;;;5.05;4.53;;;;;18.40;99061.00;;;;4916834;29;20054;-66
2023/09/14 00:06:49;;;;;;;5.38;4.88;;;;;18.50;99058.00;;;;4916201;29;20198;-66
2023/09/14 00:09:16;;;;;;;6.28;4.80;;;;;18.50;99062.00;;;;4917115;29;20054;-67
2023/09/14 00:11:42;;;;;;;5.53;5.00;;;;;18.50;99059.00;;;;4916947;29;20096;-67
2023/09/14 00:14:10;;;;;;;4.95;4.55;;;;;18.50;99071.00;;;;4915454;29;20131;-67
2023/09/14 00:16:36;;;;;;;4.60;4.20;;;;;18.50;99058.00;;;;4916381;29;20071;-66
2023/09/14 00:19:03;;;;;;;8.50;5.15;;;;;18.50;99055.00;;;;4916823;29;20044;-67
2023/09/14 00:21:30;;;;;;;4.85;4.43;;;;;18.40;99058.00;;;;4916808;29;20540;-67
2023/09/14 00:23:57;;;;;;;5.22;4.70;;;;;18.30;99060.00;;;;4916229;29;20048;-66
2023/09/14 00:26:24;;;;;;;5.13;4.68;;;;;18.20;99058.00;;;;4915552;29;20099;-67
2023/09/14 00:28:52;;;;;;;7.72;4.68;;;;;18.20;99059.00;;;;4916820;29;20074;-66
2023/09/14 00:31:19;;;;;;;5.38;4.47;;;;;18.30;99062.00;;;;4899847;29;20048;-65
2023/09/14 00:33:46;;;;;;;5.60;4.20;;;;;18.20;99064.00;;;;4916115;29;20058;-66
2023/09/14 00:36:12;;;;;;;5.40;4.45;;;;;18.10;99060.00;;;;4915186;29;20036;-66
2023/09/14 00:38:39;;;;;;;6.53;4.70;;;;;18.10;99056.00;;;;4916519;29;20558;-67
2023/09/14 00:41:06;;;;;;;5.63;4.45;;;;;18.10;99062.00;;;;4915393;29;20525;-66
2023/09/14 00:43:34;;;;;;;6.70;4.63;;;;;18.10;99063.00;;;;4915116;29;20048;-66
2023/09/14 00:46:01;;;;;;;5.45;4.35;;;;;18.00;99066.00;;;;4915010;29;20108;-65
2023/09/14 00:48:28;;;;;;;5.45;4.60;;;;;17.90;99070.00;;;;4916500;29;20052;-65
2023/09/14 00:50:55;;;;;;;5.50;5.00;;;;;17.80;99065.00;;;;4915296;29;20087;-66
2023/09/14 00:53:22;;;;;;;5.88;4.78;;;;;17.90;99053.00;;;;4915380;29;20048;-66
2023/09/14 00:55:49;;;;;;;5.53;5.03;;;;;18.00;99056.00;;;;4915742;29;20561;-65
2023/09/14 00:58:16;;;;;;;5.38;4.18;;;;;18.00;99056.00;;;;4916158;29;20044;-67
2023/09/14 01:00:46;;;;;;;5.13;4.70;;;;;17.90;99054.00;;;;4916387;29;20514;-66
2023/09/14 01:03:13;;;;;;;5.53;5.03;;;;;17.70;99055.00;;;;4915259;29;20059;-66
2023/09/14 01:05:41;;;;;;;5.57;5.00;;;;;17.70;99057.00;;;;4914522;29;20036;-66
2023/09/14 01:08:08;;;;;;;5.57;5.03;;;;;17.60;99059.00;;;;4916298;29;20051;-65
2023/09/14 01:10:35;;;;;;;5.15;4.72;;;;;17.70;99056.00;;;;4916415;29;20107;-65
2023/09/14 01:13:02;;;;;;;5.85;5.00;;;;;17.70;99058.00;;;;4918260;29;20052;-65
2023/09/14 01:15:34;;;;;;;5.90;4.60;;;;;17.60;99043.00;;;;4899789;29;20096;-67
2023/09/14 01:18:26;;;;;;;5.68;5.18;;;;;17.50;99042.00;;;;4918225;29;20103;-67
2023/09/14 01:21:11;;;;;;;6.90;5.07;;;;;17.30;99042.00;;;;4915947;29;20104;-66
2023/09/14 01:24:15;;;;;;;6.97;4.72;;;;;17.20;99044.00;;;;4916151;29;20052;-66
2023/09/14 01:26:42;;;;;;;6.82;4.93;;;;;17.10;99050.00;;;;4920083;29;20055;-64
2023/09/14 01:29:09;;;;;;;6.63;4.95;;;;;17.00;99050.00;;;;4917130;29;20056;-66
2023/09/14 01:31:36;;;;;;;7.22;5.45;;;;;16.90;99047.00;;;;4918351;29;20048;-66
2023/09/14 01:34:02;;;;;;;9.25;5.25;;;;;17.00;99052.00;;;;4916171;29;20494;-66
2023/09/14 01:36:56;;;;;;;6.13;4.85;;;;;17.10;99058.00;;;;4901418;29;20119;-67
2023/09/14 01:39:27;;;;;;;8.15;5.60;;;;;17.10;99062.00;;;;4916460;29;20541;-65
2023/09/14 01:41:55;;;;;;;5.13;4.63;;;;;17.10;99064.00;;;;4900742;29;20048;-67
2023/09/14 01:44:25;;;;;;;5.63;5.13;;;;;17.10;99066.00;;;;4914024;29;20052;-65
2023/09/14 01:46:54;;;;;;;7.18;5.57;;;;;17.00;99049.00;;;;4898804;29;20045;-66
2023/09/14 01:49:21;;;;;;;6.07;4.75;;;;;16.90;99049.00;;;;4914960;29;20055;-66
2023/09/14 01:51:48;;;;;;;6.00;4.88;;;;;16.90;99056.00;;;;4914957;29;20494;-65
2023/09/14 01:54:14;;;;;;;7.20;5.35;;;;;16.80;99066.00;;;;4915005;29;20072;-66
2023/09/14 01:56:41;;;;;;;5.63;5.13;;;;;16.70;99068.00;;;;4918616;29;20052;-66
2023/09/14 01:59:08;;;;;;;7.72;5.07;;;;;16.80;99066.00;;;;4918858;29;20048;-66
2023/09/14 02:01:35;;;;;;;6.80;5.03;;;;;16.70;99062.00;;;;4919102;29;20410;-65
2023/09/14 02:04:02;;;;;;;7.00;4.55;;;;;16.70;99068.00;;;;4917912;29;20462;-65
2023/09/14 02:06:28;;;;;;;6.03;4.85;;;;;16.60;99062.00;;;;4919829;29;20557;-66
2023/09/14 02:08:55;;;;;;;5.40;4.90;;;;;16.50;99061.00;;;;4918805;29;20043;-66
2023/09/14 02:11:21;;;;;;;5.93;4.93;;;;;16.40;99059.00;;;;4919719;29;20139;-65
2023/09/14 02:13:48;;;;;;;6.72;5.30;;;;;16.40;99059.00;;;;4902230;29;20572;-65
2023/09/14 02:16:16;;;;;;;6.13;5.32;;;;;16.40;99055.00;;;;4918310;29;20044;-66
2023/09/14 02:18:42;;;;;;;4.95;4.40;;;;;16.40;99053.00;;;;4918999;29;20047;-66
2023/09/14 02:21:11;;;;;;;5.03;4.53;;;;;16.40;99058.00;;;;4918357;29;20052;-66
2023/09/14 02:23:37;;;;;;;7.53;4.93;;;;;16.40;99062.00;;;;4917647;29;20048;-66
2023/09/14 02:26:04;;;;;;;6.03;4.40;;;;;16.40;99053.00;;;;4918368;29;20048;-66
2023/09/14 02:28:31;;;;;;;7.40;4.85;;;;;16.40;99057.00;;;;4903079;29;20044;-65
2023/09/14 02:30:57;;;;;;;7.47;4.85;;;;;16.40;99063.00;;;;4918346;29;20054;-66
2023/09/14 02:33:25;;;;;;;5.47;4.13;;;;;16.40;99073.00;;;;4903587;29;20075;-66
2023/09/14 02:35:52;;;;;;;4.85;4.38;;;;;16.40;99061.00;;;;4904073;29;20576;-66
2023/09/14 02:38:20;;;;;;;4.85;4.45;;;;;16.40;99068.00;;;;4904044;29;20058;-66
2023/09/14 02:40:46;;;;;;;5.05;4.47;;;;;16.50;99067.00;;;;4903857;29;20561;-66
2023/09/14 02:43:13;;;;;;;5.20;4.40;;;;;16.40;99079.00;;;;4920815;29;20099;-66
2023/09/14 02:45:39;;;;;;;4.28;3.78;;;;;16.30;99067.00;;;;4918090;29;20055;-66
2023/09/14 02:48:06;;;;;;;6.95;3.70;;;;;16.30;99069.00;;;;4903345;29;20048;-68
2023/09/14 02:50:33;;;;;;;5.30;3.13;;;;;16.20;99070.00;;;;4918528;29;20059;-66
2023/09/14 02:53:00;;;;;;;4.75;3.50;;;;;16.10;99067.00;;;;4917514;29;20601;-67
2023/09/14 02:55:27;;;;;;;4.93;3.40;;;;;16.10;99071.00;;;;4901012;29;20565;-66
2023/09/14 02:57:54;;;;;;;6.00;3.40;;;;;16.10;99069.00;;;;4917439;29;20060;-65
2023/09/14 03:00:23;;;;;;;3.70;3.30;;;;;16.10;99072.00;;;;4917030;29;20048;-67
2023/09/14 03:02:51;;;;;;;7.78;3.17;;;;;16.00;99066.00;;;;4917207;29;20421;-65
2023/09/14 03:05:19;;;;;;;3.28;2.88;;;;;16.00;99076.00;;;;4916183;29;20131;-65
2023/09/14 03:07:47;;;;;;;3.90;3.10;;;;;16.00;99075.00;;;;4917658;29;20052;-67
2023/09/14 03:10:16;;;;;;;3.97;2.97;;;;;15.90;99085.00;;;;4917235;29;20103;-65
2023/09/14 03:12:43;;;;;;;3.67;3.05;;;;;15.90;99079.00;;;;4916947;29;20674;-66
2023/09/14 03:15:09;;;;;;;4.25;3.20;;;;;15.90;99083.00;;;;4916346;29;20408;-66
2023/09/14 03:17:36;;;;;;;5.15;3.08;;;;;15.90;99080.00;;;;4916764;29;20056;-66
2023/09/14 03:20:06;;;;;;;4.22;3.33;;;;;15.70;99076.00;;;;4916967;29;20044;-67
2023/09/14 03:22:33;;;;;;;4.05;2.97;;;;;15.60;99081.00;;;;4916985;29;20076;-66
2023/09/14 03:25:00;;;;;;;3.80;3.40;;;;;15.50;99086.00;;;;4916025;29;20076;-66
2023/09/14 03:27:27;;;;;;;4.43;3.30;;;;;15.50;99089.00;;;;4916831;29;20056;-65
2023/09/14 03:29:54;;;;;;;5.30;3.08;;;;;15.60;99098.00;;;;4917046;29;20048;-65
2023/09/14 03:32:20;;;;;;;2.90;2.65;;;;;15.50;99097.00;;;;4916804;29;20052;-65
2023/09/14 03:34:48;;;;;;;3.70;3.00;;;;;15.40;99097.00;;;;4900499;29;20391;-67
2023/09/14 03:37:14;;;;;;;5.38;2.95;;;;;15.40;99093.00;;;;4916590;29;20052;-66
2023/09/14 03:39:45;;;;;;;4.43;3.33;;;;;15.30;99101.00;;;;4916467;29;20044;-65
2023/09/14 03:42:12;;;;;;;6.75;2.97;;;;;15.30;99113.00;;;;4916362;29;20063;-65
2023/09/14 03:44:39;;;;;;;3.97;3.13;;;;;15.30;99106.00;;;;4915636;29;20083;-65
2023/09/14 03:47:05;;;;;;;5.43;3.42;;;;;15.30;99098.00;;;;4900753;29;20123;-66
2023/09/14 03:49:32;;;;;;;4.57;3.10;;;;;15.30;99106.00;;;;4900976;29;20079;-66
2023/09/14 03:51:59;;;;;;;4.93;3.22;;;;;15.30;99105.00;;;;4901144;29;20490;-67
2023/09/14 03:54:26;;;;;;;3.58;3.17;;;;;15.30;99102.00;;;;4915559;29;20109;-65
2023/09/14 03:56:52;;;;;;;4.75;3.28;;;;;15.20;99099.00;;;;4917345;29;20071;-65
2023/09/14 03:59:19;;;;;;;3.63;2.95;;;;;15.10;99104.00;;;;4916222;29;20052;-65
2023/09/14 04:01:46;;;;;;;3.60;3.00;;;;;15.10;99098.00;;;;4917381;29;20051;-65
2023/09/14 04:04:12;;;;;;;4.30;2.90;;;;;15.20;99099.00;;;;4915567;29;20044;-66
2023/09/14 04:06:39;;;;;;;3.55;3.00;;;;;15.20;99098.00;;;;4900463;29;20503;-66
2023/09/14 04:09:06;;;;;;;5.07;3.38;;;;;15.20;99098.00;;;;4916021;29;20054;-65
2023/09/14 04:11:34;;;;;;;4.25;3.13;;;;;15.20;99097.00;;;;4916101;29;20048;-66
2023/09/14 04:14:02;;;;;;;4.53;3.50;;;;;15.30;99103.00;;;;4916522;29;20108;-65
2023/09/14 04:16:30;;;;;;;6.07;3.55;;;;;15.20;99107.00;;;;4916034;29;20068;-66
2023/09/14 04:19:00;;;;;;;3.53;2.80;;;;;15.30;99113.00;;;;4915806;29;20056;-67
2023/09/14 04:21:29;;;;;;;6.70;3.75;;;;;15.30;99114.00;;;;4916319;29;20505;-65
2023/09/14 04:23:57;;;;;;;4.50;3.03;;;;;15.20;99115.00;;;;4899644;29;20052;-66
2023/09/14 04:26:26;;;;;;;6.18;3.20;;;;;15.20;99112.00;;;;4915589;29;20040;-65
2023/09/14 04:28:53;;;;;;;4.30;3.30;;;;;15.20;99114.00;;;;4915588;29;20059;-66
2023/09/14 04:31:19;;;;;;;5.45;3.25;;;;;15.30;99123.00;;;;4915558;29;20144;-67
2023/09/14 04:33:46;;;;;;;18.17;4.93;;;;;15.30;99109.00;;;;4915244;29;20044;-67
2023/09/14 04:36:13;;;;;;;8.30;3.63;;;;;15.20;99116.00;;;;4901184;29;20044;-66
2023/09/14 04:38:42;;;;;;;8.60;3.33;;;;;15.00;99113.00;;;;4916126;29;20056;-66
2023/09/14 04:41:10;;;;;;;14.20;5.15;;;;;15.00;99111.00;;;;4915367;29;20052;-65
2023/09/14 04:43:37;;;;;;;12.95;4.80;;;;;15.00;99105.00;;;;4916585;29;20051;-66
2023/09/14 04:46:05;;;;;;;9.88;4.18;;;;;14.90;99106.00;;;;4915820;29;20060;-65
2023/09/14 04:48:33;;;;;;;8.95;4.43;;;;;15.00;99117.00;;;;4915876;29;20462;-66
2023/09/14 04:51:00;;;;;;;5.78;3.97;;;;;15.00;99129.00;;;;4916269;29;20059;-66
2023/09/14 04:53:27;;;;;;;5.18;3.58;;;;;14.90;99127.00;;;;4917139;29;20047;-66
2023/09/14 04:55:54;;;;;;;5.03;3.55;;;;;14.90;99121.00;;;;4915668;29;20505;-65
2023/09/14 04:58:21;;;;;;;4.85;3.35;;;;;15.00;99125.00;;;;4916046;29;20051;-65
2023/09/14 05:00:52;;;;;;;4.55;3.58;;;;;14.90;99124.00;;;;4916010;29;20063;-65
2023/09/14 05:03:19;;;;;;;4.20;3.20;;;;;14.90;99132.00;;;;4900172;29;20044;-66
2023/09/14 05:05:51;;;;;;;3.75;2.85;;;;;14.80;99127.00;;;;4899371;29;20060;-66
2023/09/14 05:08:18;;;;;;;5.22;4.07;;;;;14.70;99126.00;;;;4915753;29;20188;-65
2023/09/14 05:10:51;;;;;;;5.70;4.18;;;;;14.70;99135.00;;;;4915664;29;20525;-66
2023/09/14 05:13:20;;;;;;;7.43;3.67;;;;;14.70;99135.00;;;;4915633;29;20204;-65
2023/09/14 05:15:48;;;;;;;4.28;3.35;;;;;14.60;99135.00;;;;4899452;29;20048;-66
2023/09/14 05:18:17;;;;;;;4.07;3.28;;;;;14.60;99132.00;;;;4915491;29;20123;-65
2023/09/14 05:20:46;;;;;;;4.20;3.47;;;;;14.60;99136.00;;;;4915454;29;20469;-66
2023/09/14 05:23:13;;;;;;;7.20;3.80;;;;;14.70;99138.00;;;;4916737;29;20413;-66
2023/09/14 05:25:40;;;;;;;7.65;3.28;;;;;14.80;99140.00;;;;4914900;29;20055;-65
2023/09/14 05:28:08;;;;;;;6.78;3.20;;;;;14.80;99146.00;;;;4915320;29;20044;-64
2023/09/14 05:30:35;;;;;;;9.20;4.00;;;;;14.80;99144.00;;;;4920360;29;20048;-64
2023/09/14 05:33:02;;;;;;;5.43;3.30;;;;;14.80;99142.00;;;;4905858;29;20055;-65
2023/09/14 05:35:29;;;;;;;4.05;3.25;;;;;14.80;99147.00;;;;4921202;29;20146;-66
2023/09/14 05:37:56;;;;;;;5.53;3.78;;;;;14.80;99141.00;;;;4921434;29;20047;-66
2023/09/14 05:40:22;;;;;;;8.20;3.72;;;;;14.70;99145.00;;;;4921414;29;20418;-65
2023/09/14 05:42:49;;;;;;;7.78;4.35;;;;;14.60;99143.00;;;;4921007;29;20051;-66
2023/09/14 05:45:16;;;;;;;5.03;4.28;;;;;14.60;99144.00;;;;4920261;29;20055;-65
2023/09/14 05:47:44;;;;;;;7.32;4.70;;;;;14.60;99140.00;;;;4905350;29;20099;-66
2023/09/14 05:50:12;;;;;;;6.85;5.15;;;;;14.80;99140.00;;;;4920843;29;20147;-66
2023/09/14 05:52:39;;;;;;;5.28;4.10;;;;;14.90;99142.00;;;;4920933;29;20505;-66
2023/09/14 05:55:07;;;;;;;9.10;4.80;;;;;14.90;99147.00;;;;4920330;29;20059;-66
2023/09/14 05:57:34;;;;;;;8.38;4.40;;;;;15.00;99136.00;;;;4921491;29;20564;-66
2023/09/14 06:00:08;;;;;;;7.28;3.97;;;;;15.10;99139.00;;;;4921449;29;20079;-66
2023/09/14 06:02:40;;;;;;;5.97;4.68;;;;;15.20;99143.00;;;;4922745;29;20104;-65
2023/09/14 06:05:09;;;;;;;6.03;4.10;;;;;15.30;99138.00;;;;4920913;29;20051;-66
2023/09/14 06:07:54;;;;;;;6.20;3.70;;;;;15.20;99136.00;;;;4922021;29;20131;-66
2023/09/14 06:10:23;;;;;;;5.50;3.40;;;;;15.10;99139.00;;;;4921138;29;20052;-66
2023/09/14 06:12:51;;;;;;;7.43;3.90;;;;;15.20;99135.00;;;;4922401;29;20107;-67
2023/09/14 06:15:18;;;;;;;5.63;3.47;;;;;15.30;99142.00;;;;4921752;29;20446;-67
2023/09/14 06:17:46;;;;;;;17.38;3.40;;;;;15.30;99142.00;;;;4905603;29;20048;-67
2023/09/14 06:20:13;;;;;;;4.82;3.53;;;;;15.40;99145.00;;;;4921302;29;20047;-67
2023/09/14 06:22:40;;;;;;;8.95;3.38;;;;;15.40;99135.00;;;;4921046;29;20040;-66
2023/09/14 06:25:07;;;;;;;3.88;3.03;;;;;15.50;99144.00;;;;4921373;29;20458;-67
2023/09/14 06:27:34;;;;;;;4.82;2.83;;;;;15.60;99142.00;;;;4904846;29;20044;-66
2023/09/14 06:30:02;;;;;;;6.20;3.20;;;;;15.60;99145.00;;;;4920648;29;20048;-66
2023/09/14 06:32:29;;;;;;;5.55;3.28;;;;;15.60;99147.00;;;;4921142;29;20048;-67
2023/09/14 06:34:55;;;;;;;4.65;2.60;;;;;15.60;99149.00;;;;4921468;29;20513;-67
2023/09/14 06:37:22;;;;;;;4.45;2.78;;;;;15.70;99144.00;;;;4920851;29;20474;-65
2023/09/14 06:39:49;;;;;;;4.85;2.80;;;;;15.60;99143.00;;;;4936337;29;20044;-65
2023/09/14 06:42:15;;;;;;;7.35;3.28;;;;;15.60;99147.00;;;;4919079;29;20048;-65
2023/09/14 06:44:42;;;;;;;3.65;2.50;;;;;15.60;99139.00;;;;4916814;29;20080;-68
2023/09/14 06:47:08;;;;;;;9.18;2.92;;;;;15.60;99148.00;;;;4918396;29;20040;-67
2023/09/14 06:49:35;;;;;;;5.45;3.47;;;;;15.70;99146.00;;;;4917894;29;20078;-66
2023/09/14 06:52:03;;;;;;;5.65;2.67;;;;;15.80;99151.00;;;;4917900;29;20040;-66
2023/09/14 06:54:29;;;;;;;7.50;3.08;;;;;16.00;99146.00;;;;4918365;29;20067;-65
2023/09/14 06:56:56;;;;;;;8.88;3.75;;;;;16.10;99149.00;;;;4918590;29;20123;-66
2023/09/14 06:59:23;;;;;;;6.93;3.63;;;;;16.20;99152.00;;;;4919110;29;20077;-66
2023/09/14 07:01:50;;;;;;;9.05;5.68;;;;;16.40;99149.00;;;;4919517;29;20046;-66
2023/09/14 07:04:17;;;;;;;4.50;3.67;;;;;16.50;99152.00;;;;4918588;29;20055;-67
2023/09/14 07:06:44;;;;;;;7.47;2.97;;;;;16.50;99151.00;;;;4920709;29;20044;-66
2023/09/14 07:09:10;;;;;;;5.55;2.60;;;;;16.60;99145.00;;;;4920177;29;20462;-66
2023/09/14 07:11:37;;;;;;;8.35;2.63;;;;;16.60;99153.00;;;;4918610;29;20048;-66
2023/09/14 07:14:04;;;;;;;5.18;2.67;;;;;16.70;99158.00;;;;4920228;29;20088;-66
2023/09/14 07:16:30;;;;;;;7.30;2.38;;;;;16.80;99156.00;;;;4920028;29;20100;-66
2023/09/14 07:18:59;;;;;;;11.20;3.90;;;;;16.80;99157.00;;;;4919101;29;20092;-66
2023/09/14 07:21:27;;;;;;;5.95;2.65;;;;;16.90;99167.00;;;;4917430;29;20052;-63
2023/09/14 07:23:53;;;;;;;4.35;2.03;;;;;17.00;99158.00;;;;4916111;29;20510;-63
2023/09/14 07:26:20;;;;;;;4.40;2.40;;;;;17.20;99160.00;;;;4917787;29;20036;-64
2023/09/14 07:28:46;;;;;;;6.15;2.47;;;;;17.30;99161.00;;;;4916850;29;20076;-65
2023/09/14 07:31:13;;;;;;;4.15;2.50;;;;;17.40;99166.00;;;;4916262;29;20078;-63
2023/09/14 07:33:44;;;;;;;4.78;2.28;;;;;17.50;99158.00;;;;4917111;29;20048;-64
2023/09/14 07:36:11;;;;;;;6.13;2.40;;;;;17.60;99159.00;;;;4916141;29;20058;-64
2023/09/14 07:38:38;;;;;;;8.85;3.60;;;;;17.70;99168.00;;;;4917646;29;20516;-63
2023/09/14 07:41:05;;;;;;;14.75;5.18;;;;;17.70;99166.00;;;;4915961;29;20146;-66
2023/09/14 07:43:31;;;;;;;7.00;2.60;;;;;17.90;99171.00;;;;4916401;29;20052;-64
2023/09/14 07:45:58;;;;;;;4.85;2.45;;;;;17.90;99174.00;;;;4916052;29;20533;-64
2023/09/14 07:48:26;;;;;;;8.65;2.33;;;;;17.90;99177.00;;;;4916354;29;20498;-65
2023/09/14 07:50:52;;;;;;;8.02;2.45;;;;;17.80;99172.00;;;;4916070;29;20127;-64
2023/09/14 07:53:19;;;;;;;9.13;5.25;;;;;17.80;99179.00;;;;4931420;29;20052;-65
2023/09/14 07:55:52;;;;;;;6.45;2.28;;;;;17.80;99177.00;;;;4915434;29;20047;-66
2023/09/14 07:58:22;;;;;;;6.85;3.13;;;;;17.80;99184.00;;;;4917303;29;20059;-64
2023/09/14 08:00:49;;;;;;;4.95;2.38;;;;;17.90;99185.00;;;;4917155;29;20059;-64
2023/09/14 08:03:16;;;;;;;8.63;2.20;;;;;17.90;99184.00;;;;4917352;29;20048;-65
2023/09/14 08:05:43;;;;;;;4.05;2.63;;;;;17.90;99189.00;;;;4916764;29;20084;-65
2023/09/14 08:08:10;;;;;;;7.70;2.50;;;;;18.00;99196.00;;;;4916359;29;20096;-65
2023/09/14 08:10:36;;;;;;;4.05;2.13;;;;;17.90;99188.00;;;;4917404;29;20051;-65
2023/09/14 08:13:03;;;;;;;5.68;2.40;;;;;18.00;99182.00;;;;4916136;29;20076;-65
2023/09/14 08:15:30;;;;;;;4.05;2.30;;;;;18.10;99187.00;;;;4916636;29;20044;-65
2023/09/14 08:17:57;;;;;;;5.57;2.40;;;;;18.20;99184.00;;;;4916708;29;20048;-65
2023/09/14 08:20:23;;;;;;;6.57;2.20;;;;;18.50;99187.00;;;;4915704;29;20111;-65
2023/09/14 08:22:50;;;;;;;5.60;2.10;;;;;18.60;99190.00;;;;4900219;29;20080;-65
2023/09/14 08:25:16;;;;;;;4.47;1.90;;;;;18.70;99180.00;;;;4916144;29;20131;-67
2023/09/14 08:27:43;;;;;;;4.70;2.42;;;;;18.80;99188.00;;;;4915291;29;20051;-65
2023/09/14 08:30:11;;;;;;;4.47;2.28;;;;;18.90;99180.00;;;;4916646;29;20044;-65
2023/09/14 08:32:38;;;;;;;8.02;3.05;;;;;19.00;99176.00;;;;4916319;29;20048;-65
2023/09/14 08:35:25;;;;;;;3.88;2.30;;;;;19.10;99183.00;;;;4915928;29;20048;-65
2023/09/14 08:37:53;;;;;;;4.07;2.15;;;;;19.20;99182.00;;;;4915318;29;20052;-64
2023/09/14 08:40:20;;;;;;;3.83;2.40;;;;;19.20;99188.00;;;;4916443;29;20044;-65
2023/09/14 08:42:53;;;;;;;5.53;3.22;;;;;19.30;99187.00;;;;4916302;29;20047;-65
2023/09/14 08:45:24;;;;;;;5.22;2.45;;;;;19.30;99181.00;;;;4913881;29;20051;-65
2023/09/14 08:47:51;;;;;;;7.13;1.67;;;;;19.30;99187.00;;;;4915239;29;20055;-65
2023/09/14 08:50:19;;;;;;;5.82;2.42;;;;;19.30;99183.00;;;;4916273;29;20556;-65
2023/09/14 08:52:46;;;;;;;5.40;2.40;;;;;19.30;99184.00;;;;4915103;29;20048;-65
2023/09/14 08:55:16;;;;;;;6.97;2.50;;;;;19.30;99188.00;;;;4915547;29;20048;-65
2023/09/14 08:57:44;;;;;;;4.15;1.95;;;;;19.30;99186.00;;;;4916224;29;20051;-64
2023/09/14 09:00:15;;;;;;;5.90;2.47;;;;;19.50;99188.00;;;;4914955;29;20068;-65
2023/09/14 09:02:46;;;;;;;3.15;2.22;;;;;19.70;99184.00;;;;4928468;29;20048;-64
2023/09/14 09:05:14;;;;;;;4.07;2.55;;;;;19.90;99184.00;;;;4931171;29;20078;-64
2023/09/14 09:07:44;;;;;;;7.00;2.58;;;;;20.00;99185.00;;;;4930814;29;20044;-64
2023/09/14 09:10:25;;;;;;;5.18;2.70;;;;;20.10;99186.00;;;;4920789;29;20075;-64
2023/09/14 09:13:00;;;;;;;4.72;2.33;;;;;20.10;99184.00;;;;4919573;29;20052;-64
2023/09/14 09:15:32;;;;;;;3.80;1.98;;;;;20.10;99190.00;;;;4924127;29;20055;-64
2023/09/14 09:18:07;;;;;;;3.75;1.77;;;;;20.00;99184.00;;;;4932639;29;20079;-64
2023/09/14 09:20:36;;;;;;;5.75;2.17;;;;;20.00;99180.00;;;;4931583;29;20056;-64
2023/09/14 09:23:04;;;;;;;6.95;2.38;;;;;20.10;99180.00;;;;4931010;29;20080;-64
2023/09/14 09:25:44;;;;;;;4.65;1.83;;;;;20.20;99180.00;;;;4931781;29;20079;-64
2023/09/14 09:28:11;;;;;;;3.85;1.60;;;;;20.20;99173.00;;;;4931990;29;20104;-64
2023/09/14 09:30:38;;;;;;;3.50;1.73;;;;;20.40;99180.00;;;;4933043;29;20059;-64
2023/09/14 09:33:05;;;;;;;2.53;1.42;;;;;20.40;99173.00;;;;4933356;29;20072;-64
2023/09/14 09:35:34;;;;;;;4.05;1.80;;;;;20.40;99179.00;;;;4933048;29;20056;-64
2023/09/14 09:38:12;;;;;;;2.85;1.75;;;;;20.40;99180.00;;;;4932859;29;20044;-65
2023/09/14 09:40:44;;;;;;;4.55;2.00;;;;;20.50;99177.00;;;;4932789;29;20609;-64
2023/09/14 09:43:15;;;;;;;3.95;1.88;;;;;20.60;99177.00;;;;4933102;29;20056;-65
2023/09/14 09:45:43;;;;;;;3.25;1.52;;;;;20.70;99176.00;;;;4936408;29;20043;-64
2023/09/14 09:48:10;;;;;;;5.13;1.80;;;;;20.80;99179.00;;;;4931101;29;20056;-64
2023/09/14 09:50:37;;;;;;;7.13;2.85;;;;;20.80;99171.00;;;;4932756;29;20052;-64
2023/09/14 09:53:13;;;;;;;3.90;1.80;;;;;20.90;99172.00;;;;4933043;29;20108;-64
2023/09/14 09:55:43;;;;;;;3.63;1.77;;;;;20.90;99174.00;;;;4931434;29;20059;-64
2023/09/14 09:58:10;;;;;;;3.03;1.48;;;;;20.90;99175.00;;;;4933205;29;20116;-64
2023/09/14 10:00:39;;;;;;;1.50;1.40;;;;;21.00;99165.00;;;;4931457;29;20067;-64
2023/09/14 10:03:06;;;;;;;3.75;1.73;;;;;21.00;99162.00;;;;4932354;29;20048;-65
2023/09/14 10:05:36;;;;;;;2.95;1.50;;;;;21.00;99169.00;;;;4930853;29;20059;-65
2023/09/14 10:08:09;;;;;;;4.60;2.00;;;;;21.30;99172.00;;;;4925928;29;20070;-67
2023/09/14 10:10:37;;;;;;;1.48;1.38;;;;;21.50;99170.00;;;;4916621;29;20573;-67
2023/09/14 10:13:05;;;;;;;3.97;1.58;;;;;21.40;99174.00;;;;4916834;29;20044;-67
2023/09/14 10:15:32;;;;;;;4.03;2.00;;;;;21.30;99172.00;;;;4916746;29;20801;-67
2023/09/14 10:17:59;;;;;;;4.57;1.70;;;;;21.20;99178.00;;;;4919677;29;20122;-67
2023/09/14 10:20:25;;;;;;;4.22;1.67;;;;;21.30;99175.00;;;;4919644;29;20047;-66
2023/09/14 10:22:52;;;;;;;2.65;1.60;;;;;21.40;99174.00;;;;4919640;29;20040;-67
2023/09/14 10:25:20;;;;;;;3.58;1.70;;;;;21.30;99167.00;;;;4918660;29;20565;-67
2023/09/14 10:27:47;;;;;;;8.50;2.78;;;;;21.30;99165.00;;;;4919159;29;20051;-67
2023/09/14 10:30:19;;;;;;;5.15;1.75;;;;;21.30;99166.00;;;;4918003;29;20058;-66
2023/09/14 10:32:52;;;;;;;6.45;2.75;;;;;21.40;99161.00;;;;4919297;29;20044;-67
2023/09/14 10:35:19;;;;;;;;;;;;;21.70;99152.00;;;;4919080;29;20095;-67
2023/09/14 10:37:50;;;;;;;5.10;3.67;;;;;21.80;99160.00;;;;4919338;29;19922;-67
2023/09/14 10:40:17;;;;;;;4.63;2.10;;;;;21.70;99149.00;;;;4918000;29;20048;-67
2023/09/14 10:42:45;;;;;;;3.22;1.70;;;;;21.70;99148.00;;;;4919296;29;20044;-66
2023/09/14 10:45:13;;;;;;;2.88;1.70;;;;;21.60;99149.00;;;;4918545;29;20139;-68
2023/09/14 10:47:47;;;;;;;6.25;2.28;;;;;21.80;99141.00;;;;4919025;29;20450;-66
2023/09/14 10:50:15;;;;;;;3.63;1.88;;;;;22.00;99147.00;;;;4919158;29;20119;-67
2023/09/14 10:52:42;;;;;;;4.25;1.70;;;;;21.90;99141.00;;;;4919123;29;20147;-67
2023/09/14 10:55:10;;;;;;;4.15;1.58;;;;;21.90;99143.00;;;;4918181;29;20052;-67
2023/09/14 10:57:40;;;;;;;2.13;1.40;;;;;22.00;99137.00;;;;4917456;29;20058;-67
2023/09/14 11:00:08;;;;;;;2.08;1.60;;;;;22.00;99140.00;;;;4918627;29;20055;-67
2023/09/14 11:02:50;;;;;;;2.22;1.30;;;;;22.20;99128.00;;;;4928396;29;20103;-67
2023/09/14 11:05:19;;;;;;;2.85;1.13;;;;;22.30;99132.00;;;;4937068;29;20457;-65
2023/09/14 11:07:55;;;;;;;3.75;1.40;;;;;22.30;99131.00;;;;4936100;29;20051;-66
2023/09/14 11:10:23;;;;;;;2.40;1.52;;;;;22.30;99123.00;;;;4936224;29;20130;-66
2023/09/14 11:12:51;;;;;;;1.73;1.30;;;;;22.30;99125.00;;;;4938793;29;20040;-66
2023/09/14 11:15:22;;;;;;;2.92;1.23;;;;;22.20;99113.00;;;;4936449;29;20115;-65
2023/09/14 11:17:54;;;;;;;1.73;1.23;;;;;22.40;99111.00;;;;4939249;29;20489;-66
2023/09/14 11:20:24;;;;;;;2.33;1.40;;;;;22.30;99114.00;;;;4937357;29;20283;-65
2023/09/14 11:22:58;;;;;;;3.80;1.50;;;;;22.20;99108.00;;;;4937124;29;20044;-65
2023/09/14 11:25:36;;;;;;;4.90;1.50;;;;;22.30;99104.00;;;;4935335;29;20051;-66
2023/09/14 11:28:22;;;;;;;2.60;1.35;;;;;22.50;99104.00;;;;4935196;29;20040;-66
2023/09/14 11:30:51;;;;;;;1.52;1.20;;;;;22.60;99094.00;;;;4940344;29;20058;-66
2023/09/14 11:33:20;;;;;;;2.38;1.42;;;;;22.40;99100.00;;;;4944744;29;20107;-66
2023/09/14 11:35:51;;;;;;;5.30;1.80;;;;;22.40;99102.00;;;;4943888;29;20048;-66
2023/09/14 11:38:26;;;;;;;7.03;4.32;;;;;22.50;99111.00;;;;4946173;29;20122;-66
2023/09/14 11:40:54;;;;;;;3.03;1.67;;;;;22.50;99103.00;;;;4946754;29;20063;-66
2023/09/14 11:44:02;;;;;;;2.42;1.67;;;;;22.50;99112.00;;;;4937400;29;20513;-66
2023/09/14 11:46:49;;;;;;;3.35;1.60;;;;;22.60;99100.00;;;;4937577;29;20048;-66
2023/09/14 11:49:20;;;;;;;4.90;1.40;;;;;22.80;99100.00;;;;4935875;29;20501;-66
2023/09/14 11:51:53;;;;;;;3.13;1.67;;;;;23.00;99102.00;;;;4936366;29;20143;-66
2023/09/14 11:54:20;;;;;;;3.28;1.40;;;;;22.90;99093.00;;;;4934403;29;20044;-67
2023/09/14 11:56:48;;;;;;;3.30;1.33;;;;;23.00;99096.00;;;;4936532;29;20050;-66
2023/09/14 11:59:29;;;;;;;2.60;1.27;;;;;23.20;99094.00;;;;4935373;29;20043;-66
2023/09/14 12:01:57;;;;;;;3.55;1.48;;;;;23.00;99091.00;;;;4935243;29;20099;-66
2023/09/14 12:04:28;;;;;;;4.13;1.45;;;;;23.00;99089.00;;;;4935916;29;20461;-66
2023/09/14 12:06:55;;;;;;;4.70;1.60;;;;;22.90;99095.00;;;;4936332;29;20055;-67
2023/09/14 12:09:41;;;;;;;3.65;1.40;;;;;23.00;99089.00;;;;4919139;29;20424;-66
2023/09/14 12:12:10;;;;;;;3.28;1.40;;;;;22.90;99100.00;;;;4935480;29;20051;-65
2023/09/14 12:14:39;;;;;;;2.00;1.15;;;;;22.90;99091.00;;;;4934197;29;20053;-64
2023/09/14 12:17:24;;;;;;;2.42;1.38;;;;;23.00;99086.00;;;;4935613;29;20135;-65
2023/09/14 12:19:55;;;;;;;2.13;1.30;;;;;23.00;99083.00;;;;4936227;29;20040;-64
2023/09/14 12:22:25;;;;;;;3.00;1.52;;;;;23.00;99088.00;;;;4934833;29;20139;-64
2023/09/14 12:24:52;;;;;;;3.47;1.20;;;;;22.90;99077.00;;;;4935392;29;20138;-64
2023/09/14 12:27:19;;;;;;;2.13;1.40;;;;;23.20;99083.00;;;;4935745;29;20043;-64